sensor_id;sensor_type;location;lat;lon;timestamp;P1;durP1;ratioP1;P2;durP2;ratioP2
4409;SDS011;2218;51.408;7.208;2023-06-26T00:02:16;2.80;;;2.70;;
4409;SDS011;2218;51.408;7.208;2023-06-26T00:04:43;3.30;;;2.80;;
4409;SDS011;2218;51.408;7.208;2023-06-26T00:07:12;2.40;;;2.30;;
4409;SDS011;2218;51.408;7.208;2023-06-26T00:09:39;2.73;;;2.57;;
4409;SDS011;2218;51.408;7.208;2023-06-26T00:12:06;2.90;;;2.70;;
4409;SDS011;2218;51.408;7.208;2023-06-26T00:14:33;2.40;;;2.30;;
4409;SDS011;2218;51.408;7.208;2023-06-26T00:17:00;2.73;;;2.63;;
4409;SDS011;2218;51.408;7.208;2023-06-26T00:19:27;2.70;;;2.60;;
4409;SDS011;2218;51.408;7.208;2023-06-26T00:21:54;2.60;;;2.50;;
4409;SDS011;2218;51.408;7.208;2023-06-26T00:24:22;2.80;;;2.63;;
4409;SDS011;2218;51.408;7.208;2023-06-26T00:26:49;2.97;;;2.77;;
4409;SDS011;2218;51.408;7.208;2023-06-26T00:29:16;2.70;;;2.57;;
4409;SDS011;2218;51.408;7.208;2023-06-26T00:31:43;2.70;;;2.50;;
4409;SDS011;2218;51.408;7.208;2023-06-26T00:34:10;3.00;;;2.80;;
4409;SDS011;2218;51.408;7.208;2023-06-26T00:36:37;3.30;;;3.10;;
4409;SDS011;2218;51.408;7.208;2023-06-26T00:39:04;2.83;;;2.67;;
4409;SDS011;2218;51.408;7.208;2023-06-26T00:41:32;2.00;;;1.90;;
4409;SDS011;2218;51.408;7.208;2023-06-26T00:43:59;2.80;;;2.60;;
4409;SDS011;2218;51.408;7.208;2023-06-26T00:46:26;2.60;;;2.50;;
4409;SDS011;2218;51.408;7.208;2023-06-26T00:48:53;2.90;;;2.70;;
4409;SDS011;2218;51.408;7.208;2023-06-26T00:51:21;2.47;;;2.33;;
4409;SDS011;2218;51.408;7.208;2023-06-26T00:53:49;2.33;;;2.23;;
4409;SDS011;2218;51.408;7.208;2023-06-26T00:56:17;2.60;;;2.40;;
4409;SDS011;2218;51.408;7.208;2023-06-26T00:58:47;2.90;;;2.70;;
4409;SDS011;2218;51.408;7.208;2023-06-26T01:01:14;2.70;;;2.60;;
4409;SDS011;2218;51.408;7.208;2023-06-26T01:03:42;2.80;;;2.60;;
4409;SDS011;2218;51.408;7.208;2023-06-26T01:06:11;2.60;;;2.50;;
4409;SDS011;2218;51.408;7.208;2023-06-26T01:08:41;2.43;;;2.33;;
4409;SDS011;2218;51.408;7.208;2023-06-26T01:11:09;2.47;;;2.37;;
4409;SDS011;2218;51.408;7.208;2023-06-26T01:13:37;2.70;;;2.60;;
4409;SDS011;2218;51.408;7.208;2023-06-26T01:16:08;2.53;;;2.33;;
4409;SDS011;2218;51.408;7.208;2023-06-26T01:18:37;2.93;;;2.73;;
4409;SDS011;2218;51.408;7.208;2023-06-26T01:21:08;2.70;;;2.50;;
4409;SDS011;2218;51.408;7.208;2023-06-26T01:23:43;2.73;;;2.60;;
4409;SDS011;2218;51.408;7.208;2023-06-26T01:26:32;2.50;;;2.40;;
4409;SDS011;2218;51.408;7.208;2023-06-26T01:29:02;2.57;;;2.47;;
4409;SDS011;2218;51.408;7.208;2023-06-26T01:31:33;2.80;;;2.70;;
4409;SDS011;2218;51.408;7.208;2023-06-26T01:34:02;2.30;;;2.20;;
4409;SDS011;2218;51.408;7.208;2023-06-26T01:36:29;2.50;;;2.40;;
4409;SDS011;2218;51.408;7.208;2023-06-26T01:38:56;2.50;;;2.40;;
4409;SDS011;2218;51.408;7.208;2023-06-26T01:41:23;2.37;;;2.27;;
4409;SDS011;2218;51.408;7.208;2023-06-26T01:44:01;2.30;;;2.20;;
4409;SDS011;2218;51.408;7.208;2023-06-26T01:46:45;2.20;;;2.10;;
4409;SDS011;2218;51.408;7.208;2023-06-26T01:49:28;2.30;;;2.20;;
4409;SDS011;2218;51.408;7.208;2023-06-26T01:52:06;2.57;;;2.40;;
4409;SDS011;2218;51.408;7.208;2023-06-26T01:54:44;2.90;;;2.70;;
4409;SDS011;2218;51.408;7.208;2023-06-26T01:57:21;2.73;;;2.53;;
4409;SDS011;2218;51.408;7.208;2023-06-26T01:59:54;2.30;;;2.20;;
4409;SDS011;2218;51.408;7.208;2023-06-26T02:02:23;3.00;;;2.80;;
4409;SDS011;2218;51.408;7.208;2023-06-26T02:04:51;2.53;;;2.43;;
4409;SDS011;2218;51.408;7.208;2023-06-26T02:07:18;2.40;;;2.20;;
4409;SDS011;2218;51.408;7.208;2023-06-26T02:09:45;2.50;;;2.40;;
4409;SDS011;2218;51.408;7.208;2023-06-26T02:12:12;2.30;;;2.20;;
4409;SDS011;2218;51.408;7.208;2023-06-26T02:14:39;2.50;;;2.40;;
4409;SDS011;2218;51.408;7.208;2023-06-26T02:17:08;2.40;;;2.30;;
4409;SDS011;2218;51.408;7.208;2023-06-26T02:19:35;2.53;;;2.43;;
4409;SDS011;2218;51.408;7.208;2023-06-26T02:22:02;2.80;;;2.60;;
4409;SDS011;2218;51.408;7.208;2023-06-26T02:24:29;2.73;;;2.53;;
4409;SDS011;2218;51.408;7.208;2023-06-26T02:26:57;2.43;;;2.33;;
4409;SDS011;2218;51.408;7.208;2023-06-26T02:29:24;2.77;;;2.57;;
4409;SDS011;2218;51.408;7.208;2023-06-26T02:31:51;2.50;;;2.40;;
4409;SDS011;2218;51.408;7.208;2023-06-26T02:34:19;2.50;;;2.40;;
4409;SDS011;2218;51.408;7.208;2023-06-26T02:36:46;2.40;;;2.30;;
4409;SDS011;2218;51.408;7.208;2023-06-26T02:39:13;2.47;;;2.27;;
4409;SDS011;2218;51.408;7.208;2023-06-26T02:41:41;2.33;;;2.23;;
4409;SDS011;2218;51.408;7.208;2023-06-26T02:44:09;3.03;;;2.70;;
4409;SDS011;2218;51.408;7.208;2023-06-26T02:46:37;2.23;;;2.13;;
4409;SDS011;2218;51.408;7.208;2023-06-26T02:49:05;2.23;;;2.13;;
4409;SDS011;2218;51.408;7.208;2023-06-26T02:51:34;2.50;;;2.40;;
4409;SDS011;2218;51.408;7.208;2023-06-26T02:54:07;2.40;;;2.30;;
4409;SDS011;2218;51.408;7.208;2023-06-26T02:56:34;2.20;;;2.10;;
4409;SDS011;2218;51.408;7.208;2023-06-26T02:59:01;2.30;;;2.20;;
4409;SDS011;2218;51.408;7.208;2023-06-26T03:01:29;2.30;;;2.20;;
4409;SDS011;2218;51.408;7.208;2023-06-26T03:03:56;2.40;;;2.30;;
4409;SDS011;2218;51.408;7.208;2023-06-26T03:06:25;2.17;;;2.07;;
4409;SDS011;2218;51.408;7.208;2023-06-26T03:08:54;2.67;;;2.50;;
4409;SDS011;2218;51.408;7.208;2023-06-26T03:11:21;2.40;;;2.30;;
4409;SDS011;2218;51.408;7.208;2023-06-26T03:13:48;2.33;;;2.23;;
4409;SDS011;2218;51.408;7.208;2023-06-26T03:16:15;2.30;;;2.20;;
4409;SDS011;2218;51.408;7.208;2023-06-26T03:18:42;2.27;;;2.17;;
4409;SDS011;2218;51.408;7.208;2023-06-26T03:21:09;2.40;;;2.30;;
4409;SDS011;2218;51.408;7.208;2023-06-26T03:23:36;2.30;;;2.20;;
4409;SDS011;2218;51.408;7.208;2023-06-26T03:26:05;2.07;;;1.97;;
4409;SDS011;2218;51.408;7.208;2023-06-26T03:28:34;2.50;;;2.40;;
4409;SDS011;2218;51.408;7.208;2023-06-26T03:31:02;2.07;;;1.97;;
4409;SDS011;2218;51.408;7.208;2023-06-26T03:33:30;2.53;;;2.43;;
4409;SDS011;2218;51.408;7.208;2023-06-26T03:35:57;2.47;;;2.37;;
4409;SDS011;2218;51.408;7.208;2023-06-26T03:38:24;2.10;;;2.00;;
4409;SDS011;2218;51.408;7.208;2023-06-26T03:40:53;2.63;;;2.43;;
4409;SDS011;2218;51.408;7.208;2023-06-26T03:43:22;2.40;;;2.30;;
4409;SDS011;2218;51.408;7.208;2023-06-26T03:46:08;2.40;;;2.30;;
4409;SDS011;2218;51.408;7.208;2023-06-26T03:48:35;2.43;;;2.33;;
4409;SDS011;2218;51.408;7.208;2023-06-26T03:51:03;2.20;;;2.10;;
4409;SDS011;2218;51.408;7.208;2023-06-26T03:53:32;2.50;;;2.40;;
4409;SDS011;2218;51.408;7.208;2023-06-26T03:55:59;2.30;;;2.20;;
4409;SDS011;2218;51.408;7.208;2023-06-26T03:58:27;2.10;;;2.00;;
4409;SDS011;2218;51.408;7.208;2023-06-26T04:00:54;2.60;;;2.40;;
4409;SDS011;2218;51.408;7.208;2023-06-26T04:03:22;3.00;;;2.80;;
4409;SDS011;2218;51.408;7.208;2023-06-26T04:05:49;1.97;;;1.87;;
4409;SDS011;2218;51.408;7.208;2023-06-26T04:08:16;2.90;;;2.70;;
4409;SDS011;2218;51.408;7.208;2023-06-26T04:10:45;3.07;;;2.87;;
4409;SDS011;2218;51.408;7.208;2023-06-26T04:13:13;2.27;;;2.07;;
4409;SDS011;2218;51.408;7.208;2023-06-26T04:15:41;2.63;;;2.43;;
4409;SDS011;2218;51.408;7.208;2023-06-26T04:18:08;2.17;;;2.07;;
4409;SDS011;2218;51.408;7.208;2023-06-26T04:20:37;1.90;;;1.80;;
4409;SDS011;2218;51.408;7.208;2023-06-26T04:23:07;2.50;;;2.40;;
4409;SDS011;2218;51.408;7.208;2023-06-26T04:25:33;2.80;;;2.60;;
4409;SDS011;2218;51.408;7.208;2023-06-26T04:28:02;2.60;;;2.50;;
4409;SDS011;2218;51.408;7.208;2023-06-26T04:30:30;2.27;;;2.17;;
4409;SDS011;2218;51.408;7.208;2023-06-26T04:32:58;2.30;;;2.17;;
4409;SDS011;2218;51.408;7.208;2023-06-26T04:35:26;2.40;;;2.30;;
4409;SDS011;2218;51.408;7.208;2023-06-26T04:37:53;2.10;;;2.00;;
4409;SDS011;2218;51.408;7.208;2023-06-26T04:40:20;2.30;;;2.20;;
4409;SDS011;2218;51.408;7.208;2023-06-26T04:42:47;2.20;;;2.10;;
4409;SDS011;2218;51.408;7.208;2023-06-26T04:45:13;2.50;;;2.40;;
4409;SDS011;2218;51.408;7.208;2023-06-26T04:47:40;2.27;;;2.17;;
4409;SDS011;2218;51.408;7.208;2023-06-26T04:50:09;2.80;;;2.60;;
4409;SDS011;2218;51.408;7.208;2023-06-26T04:52:35;2.13;;;2.03;;
4409;SDS011;2218;51.408;7.208;2023-06-26T04:55:03;2.03;;;1.93;;
4409;SDS011;2218;51.408;7.208;2023-06-26T04:57:30;2.70;;;2.60;;
4409;SDS011;2218;51.408;7.208;2023-06-26T04:59:57;2.33;;;2.23;;
4409;SDS011;2218;51.408;7.208;2023-06-26T05:02:24;2.30;;;2.20;;
4409;SDS011;2218;51.408;7.208;2023-06-26T05:04:51;2.07;;;1.97;;
4409;SDS011;2218;51.408;7.208;2023-06-26T05:07:20;2.23;;;2.13;;
4409;SDS011;2218;51.408;7.208;2023-06-26T05:09:47;2.40;;;2.30;;
4409;SDS011;2218;51.408;7.208;2023-06-26T05:12:14;2.20;;;2.10;;
4409;SDS011;2218;51.408;7.208;2023-06-26T05:14:41;2.40;;;2.30;;
4409;SDS011;2218;51.408;7.208;2023-06-26T05:17:08;2.93;;;2.73;;
4409;SDS011;2218;51.408;7.208;2023-06-26T05:19:35;2.10;;;2.00;;
4409;SDS011;2218;51.408;7.208;2023-06-26T05:22:02;2.03;;;1.93;;
4409;SDS011;2218;51.408;7.208;2023-06-26T05:24:34;2.93;;;2.73;;
4409;SDS011;2218;51.408;7.208;2023-06-26T05:27:02;2.40;;;2.30;;
4409;SDS011;2218;51.408;7.208;2023-06-26T05:29:30;2.20;;;2.10;;
4409;SDS011;2218;51.408;7.208;2023-06-26T05:31:59;2.00;;;1.90;;
4409;SDS011;2218;51.408;7.208;2023-06-26T05:34:27;2.70;;;2.50;;
4409;SDS011;2218;51.408;7.208;2023-06-26T05:36:57;2.00;;;1.90;;
4409;SDS011;2218;51.408;7.208;2023-06-26T05:39:25;2.30;;;2.20;;
4409;SDS011;2218;51.408;7.208;2023-06-26T05:41:54;2.20;;;2.10;;
4409;SDS011;2218;51.408;7.208;2023-06-26T05:44:22;2.50;;;2.40;;
4409;SDS011;2218;51.408;7.208;2023-06-26T05:46:49;2.20;;;2.10;;
4409;SDS011;2218;51.408;7.208;2023-06-26T05:49:16;2.20;;;2.10;;
4409;SDS011;2218;51.408;7.208;2023-06-26T05:51:43;2.40;;;2.30;;
4409;SDS011;2218;51.408;7.208;2023-06-26T05:54:11;2.43;;;2.33;;
4409;SDS011;2218;51.408;7.208;2023-06-26T05:56:39;2.20;;;2.10;;
4409;SDS011;2218;51.408;7.208;2023-06-26T05:59:08;1.97;;;1.87;;
4409;SDS011;2218;51.408;7.208;2023-06-26T06:01:37;2.20;;;2.10;;
4409;SDS011;2218;51.408;7.208;2023-06-26T06:04:04;2.47;;;2.37;;
4409;SDS011;2218;51.408;7.208;2023-06-26T06:06:31;2.37;;;2.27;;
4409;SDS011;2218;51.408;7.208;2023-06-26T06:08:58;2.07;;;1.97;;
4409;SDS011;2218;51.408;7.208;2023-06-26T06:11:25;2.10;;;2.00;;
4409;SDS011;2218;51.408;7.208;2023-06-26T06:13:51;2.13;;;2.03;;
4409;SDS011;2218;51.408;7.208;2023-06-26T06:16:20;2.07;;;1.97;;
4409;SDS011;2218;51.408;7.208;2023-06-26T06:18:47;2.80;;;2.60;;
4409;SDS011;2218;51.408;7.208;2023-06-26T06:21:14;6.67;;;3.87;;
4409;SDS011;2218;51.408;7.208;2023-06-26T06:23:41;8.37;;;5.20;;
4409;SDS011;2218;51.408;7.208;2023-06-26T06:26:08;6.77;;;4.60;;
4409;SDS011;2218;51.408;7.208;2023-06-26T06:28:35;7.90;;;3.80;;
4409;SDS011;2218;51.408;7.208;2023-06-26T06:31:01;4.30;;;2.73;;
4409;SDS011;2218;51.408;7.208;2023-06-26T06:33:30;7.83;;;3.87;;
4409;SDS011;2218;51.408;7.208;2023-06-26T06:35:57;10.30;;;3.80;;
4409;SDS011;2218;51.408;7.208;2023-06-26T06:38:23;4.80;;;2.80;;
4409;SDS011;2218;51.408;7.208;2023-06-26T06:40:50;3.87;;;3.47;;
4409;SDS011;2218;51.408;7.208;2023-06-26T06:43:17;11.03;;;4.57;;
4409;SDS011;2218;51.408;7.208;2023-06-26T06:45:44;8.93;;;4.73;;
4409;SDS011;2218;51.408;7.208;2023-06-26T06:48:11;10.67;;;4.90;;
4409;SDS011;2218;51.408;7.208;2023-06-26T06:50:39;10.30;;;5.33;;
4409;SDS011;2218;51.408;7.208;2023-06-26T06:53:07;22.67;;;5.90;;
4409;SDS011;2218;51.408;7.208;2023-06-26T06:55:34;14.53;;;5.97;;
4409;SDS011;2218;51.408;7.208;2023-06-26T06:58:01;10.57;;;5.40;;
4409;SDS011;2218;51.408;7.208;2023-06-26T07:00:28;9.17;;;5.40;;
4409;SDS011;2218;51.408;7.208;2023-06-26T07:02:56;8.13;;;4.93;;
4409;SDS011;2218;51.408;7.208;2023-06-26T07:05:25;7.43;;;4.93;;
4409;SDS011;2218;51.408;7.208;2023-06-26T07:07:53;12.40;;;4.67;;
4409;SDS011;2218;51.408;7.208;2023-06-26T07:10:20;6.03;;;4.63;;
4409;SDS011;2218;51.408;7.208;2023-06-26T07:12:47;8.43;;;4.23;;
4409;SDS011;2218;51.408;7.208;2023-06-26T07:15:14;6.33;;;4.60;;
4409;SDS011;2218;51.408;7.208;2023-06-26T07:17:41;11.57;;;4.50;;
4409;SDS011;2218;51.408;7.208;2023-06-26T07:20:09;8.87;;;4.33;;
4409;SDS011;2218;51.408;7.208;2023-06-26T07:22:40;6.27;;;4.60;;
4409;SDS011;2218;51.408;7.208;2023-06-26T07:25:11;9.10;;;5.07;;
4409;SDS011;2218;51.408;7.208;2023-06-26T07:27:38;11.63;;;4.70;;
4409;SDS011;2218;51.408;7.208;2023-06-26T07:30:06;8.07;;;4.93;;
4409;SDS011;2218;51.408;7.208;2023-06-26T07:32:35;8.20;;;4.60;;
4409;SDS011;2218;51.408;7.208;2023-06-26T07:35:02;9.57;;;5.33;;
4409;SDS011;2218;51.408;7.208;2023-06-26T07:37:30;7.10;;;4.10;;
4409;SDS011;2218;51.408;7.208;2023-06-26T07:39:57;11.33;;;5.27;;
4409;SDS011;2218;51.408;7.208;2023-06-26T07:42:25;9.50;;;4.60;;
4409;SDS011;2218;51.408;7.208;2023-06-26T07:44:52;11.60;;;4.57;;
4409;SDS011;2218;51.408;7.208;2023-06-26T07:47:19;9.40;;;4.57;;
4409;SDS011;2218;51.408;7.208;2023-06-26T07:49:46;7.90;;;5.10;;
4409;SDS011;2218;51.408;7.208;2023-06-26T07:52:13;9.27;;;5.00;;
4409;SDS011;2218;51.408;7.208;2023-06-26T07:54:41;7.13;;;4.80;;
4409;SDS011;2218;51.408;7.208;2023-06-26T07:57:08;8.90;;;4.57;;
4409;SDS011;2218;51.408;7.208;2023-06-26T07:59:38;9.80;;;4.30;;
4409;SDS011;2218;51.408;7.208;2023-06-26T08:02:05;6.47;;;4.50;;
4409;SDS011;2218;51.408;7.208;2023-06-26T08:04:32;6.97;;;3.50;;
4409;SDS011;2218;51.408;7.208;2023-06-26T08:06:59;6.60;;;4.23;;
4409;SDS011;2218;51.408;7.208;2023-06-26T08:09:29;6.40;;;5.03;;
4409;SDS011;2218;51.408;7.208;2023-06-26T08:11:57;7.10;;;4.70;;
4409;SDS011;2218;51.408;7.208;2023-06-26T08:14:24;6.00;;;3.97;;
4409;SDS011;2218;51.408;7.208;2023-06-26T08:16:53;7.63;;;4.63;;
4409;SDS011;2218;51.408;7.208;2023-06-26T08:19:20;7.20;;;5.10;;
4409;SDS011;2218;51.408;7.208;2023-06-26T08:21:47;5.50;;;4.63;;
4409;SDS011;2218;51.408;7.208;2023-06-26T08:24:15;6.17;;;4.90;;
4409;SDS011;2218;51.408;7.208;2023-06-26T08:26:44;5.20;;;4.07;;
4409;SDS011;2218;51.408;7.208;2023-06-26T08:29:12;10.27;;;5.20;;
4409;SDS011;2218;51.408;7.208;2023-06-26T08:31:39;5.50;;;4.50;;
4409;SDS011;2218;51.408;7.208;2023-06-26T08:34:09;10.10;;;4.37;;
4409;SDS011;2218;51.408;7.208;2023-06-26T08:36:36;5.20;;;4.57;;
4409;SDS011;2218;51.408;7.208;2023-06-26T08:39:03;8.77;;;4.60;;
4409;SDS011;2218;51.408;7.208;2023-06-26T08:41:31;6.70;;;4.37;;
4409;SDS011;2218;51.408;7.208;2023-06-26T08:43:59;6.53;;;4.33;;
4409;SDS011;2218;51.408;7.208;2023-06-26T08:46:27;10.77;;;4.70;;
4409;SDS011;2218;51.408;7.208;2023-06-26T08:48:55;6.60;;;3.97;;
4409;SDS011;2218;51.408;7.208;2023-06-26T08:51:28;7.50;;;3.80;;
4409;SDS011;2218;51.408;7.208;2023-06-26T08:54:02;10.13;;;4.37;;
4409;SDS011;2218;51.408;7.208;2023-06-26T08:56:39;6.60;;;5.07;;
4409;SDS011;2218;51.408;7.208;2023-06-26T08:59:11;12.17;;;4.80;;
4409;SDS011;2218;51.408;7.208;2023-06-26T09:01:39;11.20;;;4.90;;
4409;SDS011;2218;51.408;7.208;2023-06-26T09:04:07;6.50;;;4.50;;
4409;SDS011;2218;51.408;7.208;2023-06-26T09:06:35;6.33;;;4.93;;
4409;SDS011;2218;51.408;7.208;2023-06-26T09:09:04;9.50;;;4.90;;
4409;SDS011;2218;51.408;7.208;2023-06-26T09:11:32;15.13;;;5.13;;
4409;SDS011;2218;51.408;7.208;2023-06-26T09:13:59;10.40;;;4.50;;
4409;SDS011;2218;51.408;7.208;2023-06-26T09:16:30;13.43;;;4.67;;
4409;SDS011;2218;51.408;7.208;2023-06-26T09:18:57;7.63;;;4.83;;
4409;SDS011;2218;51.408;7.208;2023-06-26T09:21:24;14.60;;;4.70;;
4409;SDS011;2218;51.408;7.208;2023-06-26T09:23:53;4.97;;;4.27;;
4409;SDS011;2218;51.408;7.208;2023-06-26T09:26:21;5.83;;;4.57;;
4409;SDS011;2218;51.408;7.208;2023-06-26T09:28:48;8.43;;;5.10;;
4409;SDS011;2218;51.408;7.208;2023-06-26T09:31:16;7.40;;;4.53;;
4409;SDS011;2218;51.408;7.208;2023-06-26T09:33:46;13.57;;;5.67;;
4409;SDS011;2218;51.408;7.208;2023-06-26T09:36:19;10.13;;;5.20;;
4409;SDS011;2218;51.408;7.208;2023-06-26T09:38:47;8.13;;;4.30;;
4409;SDS011;2218;51.408;7.208;2023-06-26T09:41:16;4.70;;;3.63;;
4409;SDS011;2218;51.408;7.208;2023-06-26T09:43:47;4.53;;;3.50;;
4409;SDS011;2218;51.408;7.208;2023-06-26T09:46:15;4.10;;;3.67;;
4409;SDS011;2218;51.408;7.208;2023-06-26T09:48:43;7.70;;;4.17;;
4409;SDS011;2218;51.408;7.208;2023-06-26T09:51:10;8.53;;;4.30;;
4409;SDS011;2218;51.408;7.208;2023-06-26T09:53:37;6.20;;;3.80;;
4409;SDS011;2218;51.408;7.208;2023-06-26T09:56:07;9.90;;;4.20;;
4409;SDS011;2218;51.408;7.208;2023-06-26T09:58:43;5.80;;;3.80;;
4409;SDS011;2218;51.408;7.208;2023-06-26T10:01:10;5.20;;;3.63;;
4409;SDS011;2218;51.408;7.208;2023-06-26T10:03:37;6.97;;;3.50;;
4409;SDS011;2218;51.408;7.208;2023-06-26T10:06:04;6.00;;;3.03;;
4409;SDS011;2218;51.408;7.208;2023-06-26T10:08:38;6.73;;;3.63;;
4409;SDS011;2218;51.408;7.208;2023-06-26T10:11:07;9.73;;;3.23;;
4409;SDS011;2218;51.408;7.208;2023-06-26T10:13:41;4.20;;;3.40;;
4409;SDS011;2218;51.408;7.208;2023-06-26T10:16:14;9.37;;;4.13;;
4409;SDS011;2218;51.408;7.208;2023-06-26T10:18:53;3.33;;;2.50;;
4409;SDS011;2218;51.408;7.208;2023-06-26T10:21:31;5.73;;;3.50;;
4409;SDS011;2218;51.408;7.208;2023-06-26T10:24:05;9.87;;;4.27;;
4409;SDS011;2218;51.408;7.208;2023-06-26T10:26:38;9.10;;;3.67;;
4409;SDS011;2218;51.408;7.208;2023-06-26T10:29:12;6.20;;;3.60;;
4409;SDS011;2218;51.408;7.208;2023-06-26T10:31:44;10.53;;;3.63;;
4409;SDS011;2218;51.408;7.208;2023-06-26T10:34:17;13.43;;;3.83;;
4409;SDS011;2218;51.408;7.208;2023-06-26T10:36:46;8.17;;;4.23;;
4409;SDS011;2218;51.408;7.208;2023-06-26T10:39:16;7.87;;;3.63;;
4409;SDS011;2218;51.408;7.208;2023-06-26T10:41:43;11.00;;;3.93;;
4409;SDS011;2218;51.408;7.208;2023-06-26T10:44:11;7.77;;;3.60;;
4409;SDS011;2218;51.408;7.208;2023-06-26T10:46:53;9.83;;;2.90;;
4409;SDS011;2218;51.408;7.208;2023-06-26T10:49:24;10.60;;;2.90;;
4409;SDS011;2218;51.408;7.208;2023-06-26T10:51:55;8.33;;;3.83;;
4409;SDS011;2218;51.408;7.208;2023-06-26T10:54:28;5.80;;;2.90;;
4409;SDS011;2218;51.408;7.208;2023-06-26T10:56:59;6.27;;;2.83;;
4409;SDS011;2218;51.408;7.208;2023-06-26T10:59:34;6.00;;;3.30;;
4409;SDS011;2218;51.408;7.208;2023-06-26T11:02:06;10.73;;;3.40;;
4409;SDS011;2218;51.408;7.208;2023-06-26T11:04:36;3.23;;;2.73;;
4409;SDS011;2218;51.408;7.208;2023-06-26T11:07:15;3.30;;;2.80;;
4409;SDS011;2218;51.408;7.208;2023-06-26T11:09:55;3.67;;;2.30;;
4409;SDS011;2218;51.408;7.208;2023-06-26T11:12:34;4.90;;;2.30;;
4409;SDS011;2218;51.408;7.208;2023-06-26T11:15:04;6.10;;;2.20;;
4409;SDS011;2218;51.408;7.208;2023-06-26T11:17:35;4.87;;;2.53;;
4409;SDS011;2218;51.408;7.208;2023-06-26T11:20:04;4.73;;;2.80;;
4409;SDS011;2218;51.408;7.208;2023-06-26T11:22:34;4.33;;;3.27;;
4409;SDS011;2218;51.408;7.208;2023-06-26T11:25:06;7.63;;;2.60;;
4409;SDS011;2218;51.408;7.208;2023-06-26T11:27:37;6.10;;;2.50;;
4409;SDS011;2218;51.408;7.208;2023-06-26T11:30:07;3.97;;;2.87;;
4409;SDS011;2218;51.408;7.208;2023-06-26T11:32:37;8.93;;;2.27;;
4409;SDS011;2218;51.408;7.208;2023-06-26T11:35:08;4.30;;;2.67;;
4409;SDS011;2218;51.408;7.208;2023-06-26T11:37:36;3.73;;;2.37;;
4409;SDS011;2218;51.408;7.208;2023-06-26T11:40:15;5.43;;;2.73;;
4409;SDS011;2218;51.408;7.208;2023-06-26T11:42:44;4.27;;;2.40;;
4409;SDS011;2218;51.408;7.208;2023-06-26T11:45:12;7.00;;;2.70;;
4409;SDS011;2218;51.408;7.208;2023-06-26T11:47:40;3.13;;;2.83;;
4409;SDS011;2218;51.408;7.208;2023-06-26T11:50:14;3.20;;;2.30;;
4409;SDS011;2218;51.408;7.208;2023-06-26T11:52:42;2.67;;;2.07;;
4409;SDS011;2218;51.408;7.208;2023-06-26T11:55:09;7.77;;;2.27;;
4409;SDS011;2218;51.408;7.208;2023-06-26T11:57:37;5.63;;;2.53;;
4409;SDS011;2218;51.408;7.208;2023-06-26T12:00:12;4.37;;;2.10;;
4409;SDS011;2218;51.408;7.208;2023-06-26T12:02:41;3.63;;;2.20;;
4409;SDS011;2218;51.408;7.208;2023-06-26T12:05:08;3.90;;;2.50;;
4409;SDS011;2218;51.408;7.208;2023-06-26T12:07:36;6.43;;;2.77;;
4409;SDS011;2218;51.408;7.208;2023-06-26T12:10:04;3.20;;;2.23;;
4409;SDS011;2218;51.408;7.208;2023-06-26T12:12:32;2.20;;;2.00;;
4409;SDS011;2218;51.408;7.208;2023-06-26T12:15:00;3.80;;;2.10;;
4409;SDS011;2218;51.408;7.208;2023-06-26T12:17:29;2.07;;;1.70;;
4409;SDS011;2218;51.408;7.208;2023-06-26T12:19:56;1.80;;;1.70;;
4409;SDS011;2218;51.408;7.208;2023-06-26T12:22:23;4.73;;;1.90;;
4409;SDS011;2218;51.408;7.208;2023-06-26T12:24:50;2.10;;;1.90;;
4409;SDS011;2218;51.408;7.208;2023-06-26T12:27:18;2.03;;;1.83;;
4409;SDS011;2218;51.408;7.208;2023-06-26T12:29:49;5.60;;;2.30;;
4409;SDS011;2218;51.408;7.208;2023-06-26T12:32:18;6.60;;;2.30;;
4409;SDS011;2218;51.408;7.208;2023-06-26T12:34:49;1.83;;;1.73;;
4409;SDS011;2218;51.408;7.208;2023-06-26T12:37:16;3.40;;;1.97;;
4409;SDS011;2218;51.408;7.208;2023-06-26T12:39:47;3.20;;;2.10;;
4409;SDS011;2218;51.408;7.208;2023-06-26T12:42:16;3.50;;;2.00;;
4409;SDS011;2218;51.408;7.208;2023-06-26T12:44:44;5.23;;;2.07;;
4409;SDS011;2218;51.408;7.208;2023-06-26T12:47:12;1.70;;;1.60;;
4409;SDS011;2218;51.408;7.208;2023-06-26T12:49:41;2.47;;;1.70;;
4409;SDS011;2218;51.408;7.208;2023-06-26T12:52:11;3.40;;;1.73;;
4409;SDS011;2218;51.408;7.208;2023-06-26T12:54:41;1.80;;;1.70;;
4409;SDS011;2218;51.408;7.208;2023-06-26T12:57:09;1.73;;;1.63;;
4409;SDS011;2218;51.408;7.208;2023-06-26T12:59:39;1.63;;;1.53;;
4409;SDS011;2218;51.408;7.208;2023-06-26T13:02:06;3.87;;;1.53;;
4409;SDS011;2218;51.408;7.208;2023-06-26T13:04:36;3.60;;;1.60;;
4409;SDS011;2218;51.408;7.208;2023-06-26T13:07:05;4.23;;;1.60;;
4409;SDS011;2218;51.408;7.208;2023-06-26T13:09:35;2.30;;;1.47;;
4409;SDS011;2218;51.408;7.208;2023-06-26T13:12:05;2.83;;;1.57;;
4409;SDS011;2218;51.408;7.208;2023-06-26T13:14:32;1.47;;;1.30;;
4409;SDS011;2218;51.408;7.208;2023-06-26T13:17:00;1.93;;;1.77;;
4409;SDS011;2218;51.408;7.208;2023-06-26T13:19:27;1.83;;;1.53;;
4409;SDS011;2218;51.408;7.208;2023-06-26T13:21:54;1.70;;;1.40;;
4409;SDS011;2218;51.408;7.208;2023-06-26T13:24:21;1.87;;;1.77;;
4409;SDS011;2218;51.408;7.208;2023-06-26T13:26:49;1.70;;;1.60;;
4409;SDS011;2218;51.408;7.208;2023-06-26T13:29:16;1.53;;;1.40;;
4409;SDS011;2218;51.408;7.208;2023-06-26T13:31:43;2.10;;;1.30;;
4409;SDS011;2218;51.408;7.208;2023-06-26T13:34:21;2.33;;;1.20;;
4409;SDS011;2218;51.408;7.208;2023-06-26T13:36:49;1.67;;;1.23;;
4409;SDS011;2218;51.408;7.208;2023-06-26T13:39:16;4.03;;;1.10;;
4409;SDS011;2218;51.408;7.208;2023-06-26T13:41:43;3.93;;;1.27;;
4409;SDS011;2218;51.408;7.208;2023-06-26T13:44:11;3.90;;;1.47;;
4409;SDS011;2218;51.408;7.208;2023-06-26T13:46:38;1.57;;;1.20;;
4409;SDS011;2218;51.408;7.208;2023-06-26T13:49:05;1.63;;;1.10;;
4409;SDS011;2218;51.408;7.208;2023-06-26T13:51:32;2.43;;;1.43;;
4409;SDS011;2218;51.408;7.208;2023-06-26T13:53:59;1.77;;;1.30;;
4409;SDS011;2218;51.408;7.208;2023-06-26T13:56:26;1.50;;;1.33;;
4409;SDS011;2218;51.408;7.208;2023-06-26T13:58:55;1.23;;;1.10;;
4409;SDS011;2218;51.408;7.208;2023-06-26T14:01:24;2.37;;;1.40;;
4409;SDS011;2218;51.408;7.208;2023-06-26T14:03:51;4.10;;;0.97;;
4409;SDS011;2218;51.408;7.208;2023-06-26T14:06:18;1.30;;;1.20;;
4409;SDS011;2218;51.408;7.208;2023-06-26T14:08:46;3.73;;;1.47;;
4409;SDS011;2218;51.408;7.208;2023-06-26T14:11:13;1.73;;;1.20;;
4409;SDS011;2218;51.408;7.208;2023-06-26T14:13:40;1.67;;;1.00;;
4409;SDS011;2218;51.408;7.208;2023-06-26T14:16:07;2.73;;;1.40;;
4409;SDS011;2218;51.408;7.208;2023-06-26T14:18:36;5.27;;;1.40;;
4409;SDS011;2218;51.408;7.208;2023-06-26T14:21:03;4.67;;;1.30;;
4409;SDS011;2218;51.408;7.208;2023-06-26T14:23:31;1.57;;;1.10;;
4409;SDS011;2218;51.408;7.208;2023-06-26T14:25:58;2.73;;;1.40;;
4409;SDS011;2218;51.408;7.208;2023-06-26T14:28:27;1.63;;;1.27;;
4409;SDS011;2218;51.408;7.208;2023-06-26T14:30:54;4.13;;;1.30;;
4409;SDS011;2218;51.408;7.208;2023-06-26T14:33:21;2.37;;;1.50;;
4409;SDS011;2218;51.408;7.208;2023-06-26T14:35:49;2.40;;;1.33;;
4409;SDS011;2218;51.408;7.208;2023-06-26T14:38:16;6.60;;;1.27;;
4409;SDS011;2218;51.408;7.208;2023-06-26T14:40:43;4.40;;;1.83;;
4409;SDS011;2218;51.408;7.208;2023-06-26T14:43:10;2.90;;;1.40;;
4409;SDS011;2218;51.408;7.208;2023-06-26T14:45:37;2.47;;;1.20;;
4409;SDS011;2218;51.408;7.208;2023-06-26T14:48:04;2.13;;;1.03;;
4409;SDS011;2218;51.408;7.208;2023-06-26T14:50:31;2.50;;;1.20;;
4409;SDS011;2218;51.408;7.208;2023-06-26T14:52:59;1.10;;;1.00;;
4409;SDS011;2218;51.408;7.208;2023-06-26T14:55:27;1.83;;;1.17;;
4409;SDS011;2218;51.408;7.208;2023-06-26T14:57:54;1.27;;;0.90;;
4409;SDS011;2218;51.408;7.208;2023-06-26T15:00:21;1.80;;;1.10;;
4409;SDS011;2218;51.408;7.208;2023-06-26T15:02:49;1.40;;;1.30;;
4409;SDS011;2218;51.408;7.208;2023-06-26T15:05:18;7.97;;;1.17;;
4409;SDS011;2218;51.408;7.208;2023-06-26T15:07:46;2.70;;;0.90;;
4409;SDS011;2218;51.408;7.208;2023-06-26T15:10:14;1.57;;;0.97;;
4409;SDS011;2218;51.408;7.208;2023-06-26T15:12:42;0.83;;;0.83;;
4409;SDS011;2218;51.408;7.208;2023-06-26T15:15:09;1.20;;;0.90;;
4409;SDS011;2218;51.408;7.208;2023-06-26T15:17:36;2.50;;;0.70;;
4409;SDS011;2218;51.408;7.208;2023-06-26T15:20:03;0.80;;;0.70;;
4409;SDS011;2218;51.408;7.208;2023-06-26T15:22:32;1.17;;;0.80;;
4409;SDS011;2218;51.408;7.208;2023-06-26T15:24:59;1.37;;;0.97;;